Time;durP1;ratioP1;P1;durP2;ratioP2;P2;SDS_P1;SDS_P2;PMS_P1;PMS_P2;Temp;Humidity;BMP_temperature;BMP_pressure;BME280_temperature;BME280_humidity;BME280_pressure;Samples;Min_cycle;Max_cycle;Signal;HPM_P1;HPM_P2
2022/04/21 00:05:48;;;;;;;;;;;;;;;;;;20995809;28;19920;-71
2022/04/21 00:15:50;;;;;;;;;;;;;;;;;;20995567;28;19978;-72
2022/04/21 00:25:51;;;;;;;;;;;;;;;;;;20995941;28;20370;-72
2022/04/21 00:35:53;;;;;;;;;;;;;;;;;;20995524;28;19927;-70
2022/04/21 00:45:56;;;;;;;;;;;;;;;;;;20980469;28;19920;-72
2022/04/21 00:55:58;;;;;;;;;;;;;;;;;;20992645;28;20397;-70
2022/04/21 01:05:59;;;;;;;;;;;;;;;;;;21009683;28;19920;-71
2022/04/21 01:16:01;;;;;;;;;;;;;;;;;;21009194;28;19963;-71
2022/04/21 01:26:03;;;;;;;;;;;;;;;;;;20990048;28;20321;-69
2022/04/21 01:36:06;;;;;;;;;;;;;;;;;;21007324;28;19920;-71
2022/04/21 01:46:13;;;;;;;;;;;;;;;;;;21006338;28;19927;-71
2022/04/21 01:56:21;;;;;;;;;;;;;;;;;;21005398;28;20024;-71
2022/04/21 02:06:26;;;;;;;;;;;;;;;;;;21004901;28;19990;-71
2022/04/21 02:16:29;;;;;;;;;;;;;;;;;;21005060;28;19920;-71
2022/04/21 02:26:33;;;;;;;;;;;;;;;;;;21004646;28;19920;-71
2022/04/21 02:36:38;;;;;;;;;;;;;;;;;;21002622;28;19928;-71
2022/04/21 02:46:42;;;;;;;;;;;;;;;;;;21001780;28;19920;-70
2022/04/21 03:07:05;;;;;;;;;;;;;;;;;;20999514;28;19974;-70
2022/04/21 03:17:29;;;;;;;;;;;;;;;;;;20998757;28;19924;-71
2022/04/21 03:27:50;;;;;;;;;;;;;;;;;;20999417;28;19929;-71
2022/04/21 03:38:02;;;;;;;;;;;;;;;;;;20998976;28;19921;-71
2022/04/21 03:48:10;;;;;;;;;;;;;;;;;;20996965;28;19920;-70
2022/04/21 03:58:12;;;;;;;;;;;;;;;;;;20996566;28;19920;-70
2022/04/21 04:18:36;;;;;;;;;;;;;;;;;;20995916;28;19936;-70
2022/04/21 04:28:38;;;;;;;;;;;;;;;;;;20996015;28;19927;-72
2022/04/21 04:38:40;;;;;;;;;;;;;;;;;;20976577;28;19920;-72
2022/04/21 04:48:44;;;;;;;;;;;;;;;;;;20994322;28;19920;-71
2022/04/21 04:58:46;;;;;;;;;;;;;;;;;;20993983;28;20297;-72
2022/04/21 05:08:48;;;;;;;;;;;;;;;;;;20994183;28;20476;-72
2022/04/21 05:18:59;;;;;;;;;;;;;;;;;;20993625;28;20041;-71
2022/04/21 05:29:01;;;;;;;;;;;;;;;;;;20993698;28;20433;-71
2022/04/21 05:39:03;;;;;;;;;;;;;;;;;;21007709;28;20294;-69
2022/04/21 05:49:05;;;;;;;;;;;;;;;;;;21007060;28;19920;-71
2022/04/21 05:59:06;;;;;;;;;;;;;;;;;;21007554;28;19927;-72
2022/04/21 06:09:08;;;;;;;;;;;;;;;;;;21004757;28;19966;-69
2022/04/21 06:19:10;;;;;;;;;;;;;;;;;;21004401;28;19920;-70
2022/04/21 06:29:12;;;;;;;;;;;;;;;;;;21002905;28;19927;-71
2022/04/21 06:39:14;;;;;;;;;;;;;;;;;;21001882;28;19924;-70
2022/04/21 06:49:16;;;;;;;;;;;;;;;;;;21000011;28;19920;-72
2022/04/21 06:59:18;;;;;;;;;;;;;;;;;;20983064;28;19931;-70
2022/04/21 07:09:20;;;;;;;;;;;;;;;;;;21000079;28;20324;-71
2022/04/21 07:19:22;;;;;;;;;;;;;;;;;;21000052;28;20019;-71
2022/04/21 07:29:25;;;;;;;;;;;;;;;;;;20997828;28;19921;-70
2022/04/21 07:39:27;;;;;;;;;;;;;;;;;;20997227;28;19960;-71
2022/04/21 07:59:50;;;;;;;;;;;;;;;;;;20995971;28;19921;-71
2022/04/21 08:09:51;;;;;;;;;;;;;;;;;;20998525;28;19920;-69
2022/04/21 08:19:53;;;;;;;;;;;;;;;;;;20995655;28;19921;-65
2022/04/21 08:40:16;;;;;;;;;;;;;;;;;;20945659;28;19921;-67
2022/04/21 08:50:19;;;;;;;;;;;;;;;;;;20910901;28;19968;-62
2022/04/21 09:00:21;;;;;;;;;;;;;;;;;;20921916;28;19920;-61
2022/04/21 09:10:23;;;;;;;;;;;;;;;;;;21001681;28;20007;-62
2022/04/21 09:20:26;;;;;;;;;;;;;;;;;;21007999;28;19925;-61
2022/04/21 09:30:28;;;;;;;;;;;;;;;;;;21006965;28;20438;-63
2022/04/21 09:40:31;;;;;;;;;;;;;;;;;;21006886;28;20419;-61
2022/04/21 09:50:33;;;;;;;;;;;;;;;;;;20931383;28;19920;-62
2022/04/21 10:00:36;;;;;;;;;;;;;;;;;;20903110;28;19920;-62
2022/04/21 10:10:38;;;;;;;;;;;;;;;;;;20920759;28;19944;-62
2022/04/21 10:20:40;;;;;;;;;;;;;;;;;;20950419;28;20439;-68
2022/04/21 10:30:45;;;;;;;;;;;;;;;;;;21001817;28;20335;-68
2022/04/21 10:40:47;;;;;;;;;;;;;;;;;;21001632;28;19920;-69
2022/04/21 10:50:49;;;;;;;;;;;;;;;;;;20997242;28;20074;-63
2022/04/21 11:00:51;;;;;;;;;;;;;;;;;;20943949;28;20378;-66
2022/04/21 11:10:53;;;;;;;;;;;;;;;;;;20932602;28;20366;-65
2022/04/21 11:20:55;;;;;;;;;;;;;;;;;;20947562;28;20423;-66
2022/04/21 11:30:57;;;;;;;;;;;;;;;;;;20963252;28;19921;-66
2022/04/21 11:41:02;;;;;;;;;;;;;;;;;;20915582;28;19967;-64
2022/04/21 11:51:04;;;;;;;;;;;;;;;;;;20922668;28;19963;-69
2022/04/21 12:11:25;;;;;;;;;;;;;;;;;;20912790;28;20004;-69
2022/04/21 12:21:26;;;;;;;;;;;;;;;;;;20912487;28;20338;-66
2022/04/21 12:31:27;;;;;;;;;;;;;;;;;;20910963;28;20392;-70
2022/04/21 12:41:28;;;;;;;;;;;;;;;;;;20897096;28;19925;-72
2022/04/21 12:51:29;;;;;;;;;;;;;;;;;;20928303;28;19924;-71
2022/04/21 13:01:30;;;;;;;;;;;;;;;;;;20928054;28;19927;-71
2022/04/21 13:11:32;;;;;;;;;;;;;;;;;;20926316;28;19965;-71
2022/04/21 13:21:52;;;;;;;;;;;;;;;;;;20926443;28;20307;-71
2022/04/21 13:42:15;;;;;;;;;;;;;;;;;;20925295;28;19920;-71
2022/04/21 13:52:17;;;;;;;;;;;;;;;;;;20922463;28;19967;-69
2022/04/21 14:02:18;;;;;;;;;;;;;;;;;;20923010;28;19960;-71
2022/04/21 14:12:20;;;;;;;;;;;;;;;;;;20922746;28;20416;-70
2022/04/21 14:22:22;;;;;;;;;;;;;;;;;;20922596;28;19921;-68
2022/04/21 14:32:24;;;;;;;;;;;;;;;;;;20921334;28;19928;-70
2022/04/21 14:52:46;;;;;;;;;;;;;;;;;;20919350;28;20374;-71
2022/04/21 15:02:48;;;;;;;;;;;;;;;;;;20916413;28;20020;-70
2022/04/21 15:12:50;;;;;;;;;;;;;;;;;;20916727;28;19928;-73
2022/04/21 15:22:52;;;;;;;;;;;;;;;;;;20914872;28;19927;-65
2022/04/21 15:32:54;;;;;;;;;;;;;;;;;;20932067;28;19920;-59
2022/04/21 15:42:56;;;;;;;;;;;;;;;;;;20935808;28;19921;-62
2022/04/21 15:58:48;;;;;;;;;;;;;;;;;;20914520;28;20468;-61
2022/04/21 16:03:19;;;;;;;;;;;;;;;;;;20982238;28;20324;-62
2022/04/21 16:13:21;;;;;;;;;;;;;;;;;;20992390;28;19924;-61
2022/04/21 16:23:23;;;;;;;;;;;;;;;;;;20986256;28;20437;-60
2022/04/21 16:33:24;;;;;;;;;;;;;;;;;;20955306;28;19928;-67
2022/04/21 16:43:26;;;;;;;;;;;;;;;;;;20994654;28;19946;-70
2022/04/21 16:53:28;;;;;;;;;;;;;;;;;;20959787;28;19925;-66
2022/04/21 17:03:30;;;;;;;;;;;;;;;;;;20910816;28;19920;-70
2022/04/21 17:13:32;;;;;;;;;;;;;;;;;;20910469;28;20405;-70
2022/04/21 17:23:34;;;;;;;;;;;;;;;;;;20940766;28;19956;-72
2022/04/21 17:33:36;;;;;;;;;;;;;;;;;;20959166;28;19928;-66
2022/04/21 17:43:38;;;;;;;;;;;;;;;;;;20964750;28;19972;-68
2022/04/21 17:53:40;;;;;;;;;;;;;;;;;;20950726;28;20340;-68
2022/04/21 18:03:43;;;;;;;;;;;;;;;;;;20921160;28;19921;-69
2022/04/21 18:13:46;;;;;;;;;;;;;;;;;;20959705;28;19924;-64
2022/04/21 18:23:48;;;;;;;;;;;;;;;;;;20960476;28;20011;-64
2022/04/21 18:33:51;;;;;;;;;;;;;;;;;;20983353;28;19920;-67
2022/04/21 18:43:53;;;;;;;;;;;;;;;;;;20933133;28;19921;-65
2022/04/21 18:53:54;;;;;;;;;;;;;;;;;;20918765;28;19921;-64
2022/04/21 19:03:56;;;;;;;;;;;;;;;;;;20919360;28;19928;-59
2022/04/21 19:13:58;;;;;;;;;;;;;;;;;;20900606;28;20008;-72
2022/04/21 19:24:00;;;;;;;;;;;;;;;;;;20917528;28;19955;-69
2022/04/21 19:34:02;;;;;;;;;;;;;;;;;;20916973;28;19928;-63
2022/04/21 19:44:04;;;;;;;;;;;;;;;;;;20915434;28;20348;-72
2022/04/21 19:54:08;;;;;;;;;;;;;;;;;;20914339;28;19975;-66
2022/04/21 20:04:10;;;;;;;;;;;;;;;;;;20914095;28;20350;-70
2022/04/21 20:14:12;;;;;;;;;;;;;;;;;;20913199;28;19927;-64
2022/04/21 20:26:35;;;;;;;;;;;;;;;;;;20913951;28;19921;-64
2022/04/21 20:34:36;;;;;;;;;;;;;;;;;;20913416;28;19921;-65
2022/04/21 20:44:39;;;;;;;;;;;;;;;;;;20913121;28;20025;-65
2022/04/21 20:54:41;;;;;;;;;;;;;;;;;;20916165;28;19921;-70
2022/04/21 21:04:43;;;;;;;;;;;;;;;;;;20918355;28;19921;-66
2022/04/21 21:14:45;;;;;;;;;;;;;;;;;;20927614;28;19920;-71
2022/04/21 21:24:47;;;;;;;;;;;;;;;;;;20926496;28;19931;-69
2022/04/21 21:34:49;;;;;;;;;;;;;;;;;;20926042;28;20015;-73
2022/04/21 21:44:51;;;;;;;;;;;;;;;;;;20924169;28;20274;-68
2022/04/21 21:54:56;;;;;;;;;;;;;;;;;;20923982;28;19921;-65
2022/04/21 22:04:58;;;;;;;;;;;;;;;;;;20923872;28;20346;-71
2022/04/21 22:15:01;;;;;;;;;;;;;;;;;;20922262;28;19968;-64
2022/04/21 22:25:06;;;;;;;;;;;;;;;;;;20921703;28;19920;-63
2022/04/21 22:35:07;;;;;;;;;;;;;;;;;;20920983;28;19928;-64
2022/04/21 22:45:09;;;;;;;;;;;;;;;;;;20920725;28;19924;-70
2022/04/21 22:55:11;;;;;;;;;;;;;;;;;;20920519;28;19983;-66
2022/04/21 23:05:13;;;;;;;;;;;;;;;;;;20919219;28;19943;-66
2022/04/21 23:15:15;;;;;;;;;;;;;;;;;;20918465;28;19921;-63
2022/04/21 23:25:17;;;;;;;;;;;;;;;;;;20916531;28;19967;-67
2022/04/21 23:35:19;;;;;;;;;;;;;;;;;;20916795;28;20298;-69
2022/04/21 23:45:23;;;;;;;;;;;;;;;;;;20917252;28;20385;-63
2022/04/21 23:55:25;;;;;;;;;;;;;;;;;;20917297;28;20011;-69
